createdAt,value
2023-03-14T00:00:28.100Z,78.91
2023-03-14T00:02:55.189Z,79.35
2023-03-14T00:05:19.065Z,80.03
2023-03-14T00:07:42.639Z,80.25
2023-03-14T00:10:09.190Z,80.72
2023-03-14T00:12:34.564Z,80.94
2023-03-14T00:14:58.239Z,80.23
2023-03-14T00:17:21.829Z,80.52
2023-03-14T00:19:45.340Z,79.94
2023-03-14T00:22:08.905Z,79.15
2023-03-14T00:24:32.457Z,79.76
2023-03-14T00:26:56.022Z,79.51
2023-03-14T00:29:21.714Z,81.17
2023-03-14T00:31:45.315Z,79.73
2023-03-14T00:34:08.889Z,80.86
2023-03-14T00:36:32.454Z,78.90
2023-03-14T00:38:56.884Z,79.56
2023-03-14T00:41:24.323Z,79.15
2023-03-14T00:43:48.256Z,79.83
2023-03-14T00:46:14.643Z,80.38
2023-03-14T00:48:40.688Z,80.44
2023-03-14T00:51:04.867Z,80.49
2023-03-14T00:53:28.474Z,81.19
2023-03-14T00:55:52.683Z,82.05
2023-03-14T00:58:18.724Z,80.89
2023-03-14T01:00:42.733Z,81.38
2023-03-14T01:03:08.358Z,81.91
2023-03-14T01:05:32.042Z,81.66
2023-03-14T01:07:55.609Z,82.63
2023-03-14T01:10:19.429Z,82.39
2023-03-14T01:12:43.237Z,82.60
2023-03-14T01:15:08.561Z,82.03
2023-03-14T01:17:32.445Z,82.33
2023-03-14T01:19:57.474Z,81.55
2023-03-14T01:22:22.255Z,81.89
2023-03-14T01:24:45.841Z,82.66
2023-03-14T01:27:09.545Z,82.78
2023-03-14T01:29:33.125Z,82.20
2023-03-14T01:31:56.825Z,83.33
2023-03-14T01:34:20.404Z,84.08
2023-03-14T01:36:47.161Z,84.40
2023-03-14T01:39:11.258Z,83.28
2023-03-14T01:41:35.055Z,83.71
2023-03-14T01:43:58.712Z,83.45
2023-03-14T01:46:37.128Z,84.02
2023-03-14T01:49:25.951Z,84.63
2023-03-14T01:52:13.552Z,84.60
2023-03-14T01:54:40.751Z,84.09
2023-03-14T01:57:11.827Z,83.98
2023-03-14T01:59:36.837Z,84.29
2023-03-14T02:02:01.091Z,83.37
2023-03-14T02:04:32.811Z,83.96
2023-03-14T02:07:02.915Z,83.22
2023-03-14T02:09:35.445Z,84.00
2023-03-14T02:11:59.663Z,83.38
2023-03-14T02:14:48.993Z,83.63
2023-03-14T02:17:40.220Z,82.23
2023-03-14T02:20:34.902Z,82.78
2023-03-14T02:22:58.819Z,82.27
2023-03-14T02:25:33.759Z,82.63
2023-03-14T02:27:59.790Z,83.21
2023-03-14T02:30:26.368Z,83.15
2023-03-14T02:32:54.896Z,83.28
2023-03-14T02:35:23.641Z,83.06
2023-03-14T02:37:54.122Z,83.56
2023-03-14T02:40:19.335Z,82.73
2023-03-14T02:42:45.394Z,83.47
2023-03-14T02:45:50.427Z,82.87
2023-03-14T02:48:23.757Z,83.08
2023-03-14T02:50:50.314Z,81.90
2023-03-14T02:53:17.716Z,81.86
2023-03-14T02:55:41.485Z,81.51
2023-03-14T02:58:09.208Z,80.97
2023-03-14T03:00:34.350Z,81.75
2023-03-14T03:03:02.011Z,81.38
2023-03-14T03:05:25.821Z,80.99
2023-03-14T03:07:49.362Z,81.92
2023-03-14T03:10:14.043Z,81.11
2023-03-14T03:12:38.103Z,80.98
2023-03-14T03:15:02.320Z,81.25
2023-03-14T03:17:26.916Z,81.28
2023-03-14T03:19:51.901Z,80.97
2023-03-14T03:22:15.474Z,82.24
2023-03-14T03:24:39.319Z,81.69
2023-03-14T03:27:02.834Z,81.47
2023-03-14T03:29:26.704Z,81.58
2023-03-14T03:31:50.592Z,80.69
2023-03-14T03:34:15.029Z,82.15
2023-03-14T03:36:41.052Z,81.98
2023-03-14T03:39:04.994Z,81.60
2023-03-14T03:41:28.542Z,81.88
2023-03-14T03:43:52.611Z,81.40
2023-03-14T03:46:17.274Z,80.33
2023-03-14T03:48:41.920Z,80.76
2023-03-14T03:51:06.356Z,81.31
2023-03-14T03:53:34.106Z,80.70
2023-03-14T03:56:06.148Z,81.10
2023-03-14T03:58:31.037Z,80.82
2023-03-14T04:00:54.639Z,80.70
2023-03-14T04:03:18.229Z,81.23
2023-03-14T04:05:42.088Z,80.90
2023-03-14T04:08:07.756Z,81.09
2023-03-14T04:10:35.882Z,80.58
2023-03-14T04:13:07.654Z,80.60
2023-03-14T04:15:32.653Z,80.75
2023-03-14T04:18:00.836Z,81.50
2023-03-14T04:20:24.427Z,81.59
2023-03-14T04:22:47.969Z,81.28
2023-03-14T04:25:11.915Z,80.85
2023-03-14T04:27:41.512Z,80.90
2023-03-14T04:30:14.194Z,80.15
2023-03-14T04:32:48.992Z,80.94
2023-03-14T04:35:13.224Z,80.98
2023-03-14T04:37:36.818Z,80.63
2023-03-14T04:40:01.465Z,80.49
2023-03-14T04:42:29.372Z,79.75
2023-03-14T04:44:54.653Z,79.41
2023-03-14T04:47:20.891Z,79.15
2023-03-14T04:49:46.171Z,79.26
2023-03-14T04:52:11.989Z,78.79
2023-03-14T04:54:35.883Z,78.89
2023-03-14T04:56:59.951Z,79.51
2023-03-14T04:59:27.512Z,79.44
2023-03-14T05:01:56.381Z,79.81
2023-03-14T05:04:42.875Z,79.80
2023-03-14T05:07:31.657Z,79.06
2023-03-14T05:10:07.007Z,79.68
2023-03-14T05:12:39.465Z,79.22
2023-03-14T05:15:17.639Z,78.58
2023-03-14T05:17:56.630Z,78.90
2023-03-14T05:20:26.386Z,79.36
2023-03-14T05:23:09.880Z,80.11
2023-03-14T05:25:51.831Z,79.56
2023-03-14T05:28:32.150Z,78.87
2023-03-14T05:31:16.037Z,78.49
2023-03-14T05:33:53.541Z,78.41
2023-03-14T05:36:48.532Z,78.58
2023-03-14T05:39:30.751Z,78.76
2023-03-14T05:42:23.815Z,78.05
2023-03-14T05:45:07.583Z,78.72
2023-03-14T05:48:09.505Z,78.76
2023-03-14T05:50:40.291Z,78.58
2023-03-14T05:53:09.529Z,77.51
2023-03-14T05:55:56.818Z,78.06
2023-03-14T05:58:39.388Z,77.34
2023-03-14T06:01:23.370Z,78.04
2023-03-14T06:04:05.501Z,77.76
2023-03-14T06:06:31.358Z,77.09
2023-03-14T06:08:56.745Z,76.98
2023-03-14T06:11:20.610Z,76.92
2023-03-14T06:13:44.273Z,77.29
2023-03-14T06:16:09.200Z,76.28
2023-03-14T06:18:33.126Z,76.08
2023-03-14T06:20:57.496Z,75.57
2023-03-14T06:23:25.637Z,75.90
2023-03-14T06:25:50.001Z,75.40
2023-03-14T06:28:14.363Z,75.55
2023-03-14T06:30:38.455Z,75.13
2023-03-14T06:33:02.418Z,74.71
2023-03-14T06:35:26.419Z,74.12
2023-03-14T06:37:50.662Z,74.06
2023-03-14T06:40:18.909Z,73.66
2023-03-14T06:42:59.919Z,73.94
2023-03-14T06:45:26.327Z,73.79
2023-03-14T06:47:50.858Z,73.95
2023-03-14T06:50:17.960Z,73.15
2023-03-14T06:52:48.739Z,73.22
2023-03-14T06:55:20.065Z,73.04
2023-03-14T06:57:45.388Z,71.86
2023-03-14T07:00:11.448Z,71.90
2023-03-14T07:02:42.595Z,71.81
2023-03-14T07:05:17.093Z,71.92
2023-03-14T07:07:43.809Z,71.77
2023-03-14T07:10:09.880Z,70.86
2023-03-14T07:12:35.160Z,71.83
2023-03-14T07:15:03.304Z,71.16
2023-03-14T07:17:36.225Z,70.68
2023-03-14T07:20:00.298Z,71.46
2023-03-14T07:22:24.338Z,71.43
2023-03-14T07:24:48.051Z,70.40
2023-03-14T07:27:13.001Z,70.38
2023-03-14T07:29:38.011Z,70.87
2023-03-14T07:32:01.870Z,70.30
2023-03-14T07:34:25.826Z,70.79
2023-03-14T07:36:49.439Z,70.59
2023-03-14T07:39:13.064Z,69.76
2023-03-14T07:41:44.225Z,69.42
2023-03-14T07:44:22.544Z,70.36
2023-03-14T07:46:47.673Z,69.37
2023-03-14T07:49:11.235Z,70.93
2023-03-14T07:51:34.988Z,69.57
2023-03-14T07:53:58.584Z,69.59
2023-03-14T07:56:22.225Z,69.32
2023-03-14T07:58:45.739Z,67.32
2023-03-14T08:01:10.085Z,67.50
2023-03-14T08:03:35.087Z,66.88
2023-03-14T08:05:58.759Z,67.20
2023-03-14T08:08:22.309Z,66.08
2023-03-14T08:10:47.236Z,66.07
2023-03-14T08:13:12.462Z,65.67
2023-03-14T08:15:36.059Z,65.10
2023-03-14T08:17:59.802Z,65.52
2023-03-14T08:20:27.474Z,65.03
2023-03-14T08:22:51.561Z,65.51
2023-03-14T08:25:15.549Z,67.43
2023-03-14T08:27:39.939Z,67.05
2023-03-14T08:30:03.999Z,68.47
2023-03-14T08:32:28.125Z,67.95
2023-03-14T08:34:52.191Z,66.94
2023-03-14T08:37:26.310Z,67.39
2023-03-14T08:39:50.740Z,68.49
2023-03-14T08:42:15.298Z,68.31
2023-03-14T08:44:39.084Z,69.04
2023-03-14T08:47:02.726Z,68.94
2023-03-14T08:49:26.592Z,68.68
2023-03-14T08:51:50.409Z,70.16
2023-03-14T08:54:15.492Z,68.42
2023-03-14T08:56:39.925Z,68.88
2023-03-14T08:59:03.515Z,67.41
2023-03-14T09:01:27.371Z,67.99
2023-03-14T09:03:51.040Z,67.74
2023-03-14T09:06:19.052Z,66.40
2023-03-14T09:08:42.682Z,66.98
2023-03-14T09:11:10.445Z,66.25
2023-03-14T09:13:34.028Z,66.80
2023-03-14T09:15:58.817Z,66.13
2023-03-14T09:18:23.605Z,65.66
2023-03-14T09:20:47.172Z,63.80
2023-03-14T09:23:10.812Z,62.37
2023-03-14T09:25:34.356Z,60.87
2023-03-14T09:27:59.344Z,62.54
2023-03-14T09:30:23.274Z,59.01
2023-03-14T09:32:46.915Z,59.61
2023-03-14T09:35:11.444Z,58.19
2023-03-14T09:37:35.081Z,58.68
2023-03-14T09:39:58.625Z,57.71
2023-03-14T09:42:28.490Z,57.88
2023-03-14T09:44:59.801Z,56.98
2023-03-14T09:47:24.493Z,56.74
2023-03-14T09:49:48.483Z,57.06
2023-03-14T09:52:17.066Z,56.71
2023-03-14T09:54:45.401Z,57.26
2023-03-14T09:57:15.171Z,59.05
2023-03-14T09:59:39.976Z,58.39
2023-03-14T10:02:17.951Z,59.14
2023-03-14T10:04:45.527Z,58.29
2023-03-14T10:07:15.856Z,58.90
2023-03-14T10:09:39.723Z,58.83
2023-03-14T10:12:10.440Z,58.37
2023-03-14T10:14:38.111Z,57.92
2023-03-14T10:17:11.904Z,57.83
2023-03-14T10:19:36.725Z,57.93
2023-03-14T10:22:05.934Z,57.46
2023-03-14T10:24:31.887Z,57.59
2023-03-14T10:26:56.772Z,57.38
2023-03-14T10:29:20.380Z,58.75
2023-03-14T10:31:55.659Z,58.41
2023-03-14T10:34:26.211Z,58.66
2023-03-14T10:36:56.255Z,58.63
2023-03-14T10:39:29.978Z,58.41
2023-03-14T10:41:57.354Z,58.28
2023-03-14T10:44:26.650Z,58.47
2023-03-14T10:47:00.105Z,59.12
2023-03-14T10:49:31.935Z,60.02
2023-03-14T10:51:55.549Z,59.09
2023-03-14T10:54:24.739Z,59.83
2023-03-14T10:56:59.861Z,59.63
2023-03-14T10:59:23.464Z,58.87
2023-03-14T11:01:54.696Z,59.29
2023-03-14T11:04:42.021Z,59.36
2023-03-14T11:07:12.421Z,59.19
2023-03-14T11:09:44.008Z,59.54
2023-03-14T11:12:32.544Z,58.87
2023-03-14T11:15:02.310Z,58.96
2023-03-14T11:17:33.412Z,59.42
2023-03-14T11:20:34.162Z,60.07
2023-03-14T11:23:06.648Z,58.79
2023-03-14T11:25:35.430Z,59.25
2023-03-14T11:28:11.322Z,59.64
2023-03-14T11:30:42.656Z,59.04
2023-03-14T11:33:17.008Z,60.32
2023-03-14T11:35:49.680Z,59.99
2023-03-14T11:38:31.900Z,59.49
2023-03-14T11:40:59.984Z,60.09
2023-03-14T11:43:29.704Z,59.80
2023-03-14T11:45:57.353Z,60.18
2023-03-14T11:48:35.375Z,60.15
2023-03-14T11:51:02.232Z,61.86
2023-03-14T11:53:49.570Z,63.09
2023-03-14T11:56:20.599Z,64.26
2023-03-14T11:58:56.360Z,63.49
2023-03-14T12:01:23.142Z,63.69
2023-03-14T12:03:57.267Z,66.31
2023-03-14T12:06:28.303Z,72.82
2023-03-14T12:08:54.792Z,75.59
2023-03-14T12:11:36.055Z,77.83
2023-03-14T12:13:59.839Z,75.44
2023-03-14T12:16:36.564Z,75.79
2023-03-14T12:19:37.694Z,75.88
2023-03-14T12:22:11.393Z,77.70
2023-03-14T12:24:38.666Z,79.00
2023-03-14T12:27:04.890Z,75.90
2023-03-14T12:29:28.749Z,76.01
2023-03-14T12:32:10.292Z,72.71
2023-03-14T12:34:35.260Z,71.89
2023-03-14T12:37:21.391Z,71.14
2023-03-14T12:39:58.517Z,67.63
2023-03-14T12:42:45.007Z,67.73
2023-03-14T12:45:26.351Z,67.27
2023-03-14T12:48:11.114Z,67.23
2023-03-14T12:50:45.569Z,65.20
2023-03-14T12:53:56.550Z,67.99
2023-03-14T12:56:27.672Z,66.71
2023-03-14T12:59:18.617Z,67.12
2023-03-14T13:01:55.041Z,68.83
2023-03-14T13:04:23.839Z,67.45
2023-03-14T13:06:58.038Z,68.20
2023-03-14T13:10:15.552Z,67.81
2023-03-14T13:12:48.672Z,68.22
2023-03-14T13:15:28.892Z,68.34
2023-03-14T13:17:56.319Z,69.04
2023-03-14T13:20:27.092Z,67.94
2023-03-14T13:22:52.626Z,67.93
2023-03-14T13:25:19.552Z,67.91
2023-03-14T13:27:44.282Z,67.23
2023-03-14T13:30:17.781Z,66.23
2023-03-14T13:32:46.863Z,64.94
2023-03-14T13:35:19.207Z,64.83
2023-03-14T13:37:42.811Z,66.65
2023-03-14T13:40:19.622Z,66.38
2023-03-14T13:42:44.759Z,66.06
2023-03-14T13:45:16.294Z,66.12
2023-03-14T13:47:42.065Z,66.50
2023-03-14T13:50:06.456Z,65.45
2023-03-14T13:52:38.394Z,66.34
2023-03-14T13:55:05.150Z,64.48
2023-03-14T13:57:28.892Z,63.08
2023-03-14T14:00:09.180Z,63.62
2023-03-14T14:02:33.862Z,64.54
2023-03-14T14:04:58.464Z,63.67
2023-03-14T14:07:22.228Z,64.18
2023-03-14T14:09:49.312Z,62.60
2023-03-14T14:12:17.500Z,61.57
2023-03-14T14:14:45.190Z,61.31
2023-03-14T14:17:13.743Z,61.91
2023-03-14T14:19:39.243Z,61.35
2023-03-14T14:22:03.760Z,60.74
2023-03-14T14:24:34.109Z,60.77
2023-03-14T14:27:03.907Z,59.86
2023-03-14T14:29:30.896Z,60.19
2023-03-14T14:32:11.043Z,60.10
2023-03-14T14:34:50.296Z,60.25
2023-03-14T14:37:27.523Z,60.04
2023-03-14T14:39:53.617Z,59.62
2023-03-14T14:42:18.807Z,60.58
2023-03-14T14:44:44.182Z,70.79
2023-03-14T14:47:08.101Z,71.65
2023-03-14T14:49:35.224Z,74.46
2023-03-14T14:52:06.952Z,73.70
2023-03-14T14:54:40.925Z,75.11
2023-03-14T14:57:06.956Z,75.22
2023-03-14T14:59:31.333Z,76.54
2023-03-14T15:01:59.305Z,76.82
2023-03-14T15:04:22.884Z,76.33
2023-03-14T15:06:49.552Z,78.52
2023-03-14T15:09:14.540Z,80.64
2023-03-14T15:11:38.146Z,80.90
2023-03-14T15:14:01.757Z,82.91
2023-03-14T15:16:30.275Z,84.44
2023-03-14T15:18:57.438Z,83.42
2023-03-14T15:21:21.081Z,83.58
2023-03-14T15:23:44.602Z,87.19
2023-03-14T15:26:16.070Z,87.81
2023-03-14T15:28:39.842Z,87.77
2023-03-14T15:31:03.545Z,87.51
2023-03-14T15:33:28.812Z,88.65
2023-03-14T15:35:53.034Z,87.90
2023-03-14T15:38:21.895Z,87.38
2023-03-14T15:40:45.785Z,88.87
2023-03-14T15:43:11.259Z,87.74
2023-03-14T15:45:35.001Z,88.14
2023-03-14T15:47:58.707Z,87.17
2023-03-14T15:50:22.272Z,88.53
2023-03-14T15:52:45.876Z,86.98
2023-03-14T15:55:10.401Z,87.69
2023-03-14T15:57:34.026Z,88.87
2023-03-14T15:59:59.101Z,88.72
2023-03-14T16:02:22.728Z,88.18
2023-03-14T16:04:46.725Z,89.05
2023-03-14T16:07:10.556Z,89.83
2023-03-14T16:09:34.085Z,89.55
2023-03-14T16:11:57.686Z,89.03
2023-03-14T16:14:21.326Z,89.40
2023-03-14T16:16:46.389Z,88.19
2023-03-14T16:19:09.977Z,88.79
2023-03-14T16:21:34.676Z,87.26
2023-03-14T16:23:58.255Z,88.55
2023-03-14T16:26:22.489Z,87.93
2023-03-14T16:28:47.454Z,86.68
2023-03-14T16:31:13.746Z,86.04
2023-03-14T16:33:39.828Z,86.98
2023-03-14T16:36:08.523Z,87.55
2023-03-14T16:38:34.013Z,87.31
2023-03-14T16:40:59.757Z,87.71
2023-03-14T16:43:23.273Z,88.32
2023-03-14T16:45:46.861Z,88.06
2023-03-14T16:48:10.387Z,88.76
2023-03-14T16:50:35.373Z,89.12
2023-03-14T16:52:58.921Z,88.57
2023-03-14T16:55:22.863Z,90.40
2023-03-14T16:57:46.357Z,90.38
2023-03-14T17:00:12.275Z,90.66
2023-03-14T17:02:35.899Z,90.08
2023-03-14T17:04:59.527Z,90.80
2023-03-14T17:07:24.452Z,91.48
2023-03-14T17:09:50.250Z,91.36
2023-03-14T17:12:13.895Z,90.81
2023-03-14T17:14:37.635Z,90.58
2023-03-14T17:17:03.817Z,90.63
2023-03-14T17:19:27.494Z,90.04
2023-03-14T17:21:53.076Z,91.02
2023-03-14T17:24:20.083Z,90.71
2023-03-14T17:26:43.772Z,90.85
2023-03-14T17:29:07.502Z,90.85
2023-03-14T17:31:31.125Z,90.31
2023-03-14T17:33:55.168Z,90.69
2023-03-14T17:36:19.016Z,91.03
2023-03-14T17:38:42.949Z,91.08
2023-03-14T17:41:10.689Z,90.61
2023-03-14T17:43:34.305Z,91.95
2023-03-14T17:46:01.989Z,91.10
2023-03-14T17:48:25.699Z,90.46
2023-03-14T17:50:49.223Z,90.28
2023-03-14T17:53:12.785Z,90.32
2023-03-14T17:55:36.394Z,90.45
2023-03-14T17:58:02.712Z,91.48
2023-03-14T18:00:26.609Z,91.45
2023-03-14T18:02:50.386Z,92.51
2023-03-14T18:05:14.462Z,93.29
2023-03-14T18:07:39.366Z,92.71
2023-03-14T18:10:03.026Z,92.59
2023-03-14T18:12:27.128Z,91.07
2023-03-14T18:14:52.159Z,92.99
2023-03-14T18:17:16.120Z,91.97
2023-03-14T18:19:40.187Z,92.19
2023-03-14T18:22:03.857Z,91.34
2023-03-14T18:24:28.917Z,91.70
2023-03-14T18:26:52.696Z,92.06
2023-03-14T18:29:16.476Z,91.67
2023-03-14T18:31:41.643Z,92.13
2023-03-14T18:34:05.307Z,91.86
2023-03-14T18:36:29.036Z,91.44
2023-03-14T18:38:56.515Z,92.37
2023-03-14T18:41:21.069Z,92.33
2023-03-14T18:43:45.773Z,93.16
2023-03-14T18:46:09.726Z,93.37
2023-03-14T18:48:34.750Z,93.72
2023-03-14T18:50:59.641Z,94.45
2023-03-14T18:53:28.306Z,93.53
2023-03-14T18:55:52.241Z,94.50
2023-03-14T18:58:15.780Z,94.04
2023-03-14T19:00:40.370Z,94.64
2023-03-14T19:03:04.205Z,94.74
2023-03-14T19:05:29.242Z,94.37
2023-03-14T19:07:52.794Z,95.96
2023-03-14T19:10:16.596Z,94.71
2023-03-14T19:12:40.135Z,94.84
2023-03-14T19:15:03.977Z,95.32
2023-03-14T19:17:27.591Z,93.28
2023-03-14T19:19:52.867Z,93.57
2023-03-14T19:22:17.784Z,92.83
2023-03-14T19:24:41.795Z,92.10
2023-03-14T19:27:05.714Z,91.16
2023-03-14T19:29:29.369Z,91.28
2023-03-14T19:31:53.981Z,91.90
2023-03-14T19:34:17.561Z,91.04
2023-03-14T19:36:41.099Z,90.53
2023-03-14T19:39:07.456Z,91.46
2023-03-14T19:41:32.212Z,91.38
2023-03-14T19:43:56.216Z,90.30
2023-03-14T19:46:21.673Z,89.51
2023-03-14T19:48:46.525Z,90.55
2023-03-14T19:51:10.474Z,90.53
2023-03-14T19:53:35.380Z,90.07
2023-03-14T19:56:00.687Z,89.85
2023-03-14T19:58:24.922Z,88.95
2023-03-14T20:00:49.436Z,88.25
2023-03-14T20:03:13.639Z,87.36
2023-03-14T20:05:41.749Z,87.92
2023-03-14T20:08:05.782Z,86.98
2023-03-14T20:10:29.305Z,87.32
2023-03-14T20:12:54.754Z,87.24
2023-03-14T20:15:20.329Z,86.90
2023-03-14T20:17:43.981Z,86.03
2023-03-14T20:20:09.911Z,86.27
2023-03-14T20:22:36.316Z,86.20
2023-03-14T20:25:00.252Z,87.03
2023-03-14T20:27:23.970Z,87.20
2023-03-14T20:29:49.790Z,86.89
2023-03-14T20:32:13.416Z,86.65
2023-03-14T20:34:36.977Z,86.55
2023-03-14T20:37:02.761Z,86.07
2023-03-14T20:39:26.414Z,86.48
2023-03-14T20:41:50.027Z,85.24
2023-03-14T20:44:13.708Z,85.54
2023-03-14T20:46:38.897Z,86.65
2023-03-14T20:49:02.764Z,85.81
2023-03-14T20:51:26.390Z,84.44
2023-03-14T20:53:49.890Z,84.23
2023-03-14T20:56:13.538Z,83.33
2023-03-14T20:58:37.110Z,83.11
2023-03-14T21:01:02.220Z,83.68
2023-03-14T21:03:27.402Z,83.24
2023-03-14T21:05:52.375Z,83.33
2023-03-14T21:08:18.365Z,83.26
2023-03-14T21:10:41.992Z,82.43
2023-03-14T21:13:06.054Z,82.13
2023-03-14T21:15:29.682Z,81.72
2023-03-14T21:17:54.283Z,82.45
2023-03-14T21:20:19.628Z,80.90
2023-03-14T21:22:43.179Z,81.00
2023-03-14T21:25:07.795Z,80.95
2023-03-14T21:27:31.323Z,80.36
2023-03-14T21:29:54.883Z,79.83
2023-03-14T21:32:18.698Z,80.90
2023-03-14T21:34:42.629Z,80.51
2023-03-14T21:37:07.557Z,79.58
2023-03-14T21:39:31.302Z,79.52
2023-03-14T21:41:54.836Z,79.95
2023-03-14T21:44:20.462Z,79.83
2023-03-14T21:46:46.016Z,80.85
2023-03-14T21:49:09.739Z,79.95
2023-03-14T21:51:35.753Z,80.76
2023-03-14T21:54:01.182Z,81.42
2023-03-14T21:56:27.006Z,80.49
2023-03-14T21:58:50.764Z,79.90
2023-03-14T22:01:14.368Z,79.86
2023-03-14T22:03:38.115Z,79.57
2023-03-14T22:06:03.012Z,80.00
2023-03-14T22:08:26.681Z,79.69
2023-03-14T22:10:53.727Z,82.44
2023-03-14T22:13:17.669Z,80.91
2023-03-14T22:15:41.250Z,81.31
2023-03-14T22:18:05.212Z,81.70
2023-03-14T22:20:28.814Z,80.46
2023-03-14T22:22:52.392Z,80.83
2023-03-14T22:25:16.011Z,80.95
2023-03-14T22:27:41.050Z,80.25
2023-03-14T22:30:05.172Z,81.41
2023-03-14T22:32:28.905Z,81.15
2023-03-14T22:34:52.449Z,80.87
2023-03-14T22:37:16.123Z,83.20
2023-03-14T22:39:39.714Z,81.14
2023-03-14T22:42:03.702Z,81.09
2023-03-14T22:44:32.561Z,80.70
2023-03-14T22:46:56.148Z,82.17
2023-03-14T22:49:19.910Z,81.44
2023-03-14T22:51:43.638Z,80.52
2023-03-14T22:54:07.383Z,80.98
2023-03-14T22:56:31.025Z,80.40
2023-03-14T22:58:54.630Z,80.65
2023-03-14T23:01:19.968Z,80.80
2023-03-14T23:03:43.748Z,81.14
2023-03-14T23:06:08.224Z,80.68
2023-03-14T23:08:33.250Z,81.07
2023-03-14T23:11:02.647Z,81.11
2023-03-14T23:13:26.190Z,80.87
2023-03-14T23:15:49.762Z,80.28
2023-03-14T23:18:17.286Z,81.98
2023-03-14T23:20:40.970Z,81.24
2023-03-14T23:23:08.423Z,81.39
2023-03-14T23:25:38.503Z,81.26
2023-03-14T23:28:05.665Z,81.01
2023-03-14T23:30:29.513Z,81.65
2023-03-14T23:32:53.156Z,81.30
2023-03-14T23:35:18.300Z,82.00
2023-03-14T23:37:42.219Z,81.29
2023-03-14T23:40:08.020Z,81.16
2023-03-14T23:42:31.622Z,81.98
2023-03-14T23:44:55.201Z,81.40
2023-03-14T23:47:18.807Z,81.78
2023-03-14T23:49:42.803Z,82.35
2023-03-14T23:52:08.231Z,81.03
2023-03-14T23:54:32.024Z,80.86
2023-03-14T23:56:55.723Z,81.29
2023-03-14T23:59:19.282Z,80.69
